Sorel, Canada
Current Conditions -  °F | °C
As of 2:00 AM on Saturday 25 Oct 2014 (Local Time) from CYRQ Reporting Station
Overcast Overcast  
Wind Chill: 36°   Ceiling: 18000
Heat Index: 36°   Visibility: 9mi
Dew Point: 36°   Wind: 2mph
Humidity: 100%   Direction: 70°ENE
Pressure: 29.75"   Gusts: NA
Location:  46.04°N, 73.11°W
Report Text: CYRQ 250600Z AUTO 07002KT 9SM OVC180 02/02 A2975 RMK SLP075
Loading
Personal Weather Stations






























Interactive Weather Map
Tropical Storm Tracking
New forecast layout! Learn more

10-Day Weather Forecast

Advertisements
Track Severe Weather on mobile